Nearby METAR Reports

 

KSJC - San Jose, California, USA
Distance from station: NE 14km
Updated: 25/04/2018 06:53
Overcast
Overcast
 Wind from NNW
Wind: NNW 7 km/h
Temperature: 13°C
Dew Point: 9°C
Humidity: 77%
Barometer: 1016.9 hPa
Clouds: Overcast
Visibility: 16 km
Cloud details: Overcast 427 m
2018/04/25 09:53 KSJC 250953Z AUTO 33004KT 10SM OVC014 13/09 A3003 RMK AO2 SLP170 T01280094
KNUQ - Moffett Nas/Mtn, California, USA
Distance from station: N 14km
Updated: 25/04/2018 06:56
Overcast
Overcast
 Wind from NNE
Wind: NNE 11 km/h
Temperature: 13°C
Dew Point: 10°C
Humidity: 82%
Barometer: 1017.3 hPa
Clouds: Overcast
Visibility: 16 km
Cloud details: Overcast 366 m
2018/04/25 09:56 KNUQ 250956Z 02006KT 10SM OVC012 13/10 A3004 RMK AO2 SLP174 T01280100
 
KPAO - Palo Alto, California, USA
Distance from station: NNW 23km
Updated: 25/04/2018 00:47
NOT Current
Partly cloudy
Partly cloudy
 Wind from NW
Wind: NW 15 km/h
Barometer: 1016.3 hPa
Clouds: Partly cloudy
Visibility: 16 km
Cloud details: Partly cloudy 4877 m
2018/04/25 03:47 KPAO 250347Z 32008KT 10SM SCT160 A3001 RMK LAST
KRHV - San Jose/Reid, California, USA
Distance from station: ENE 19km
Updated: 25/04/2018 01:47
NOT Current
Mostly cloudy
Mostly cloudy
 Wind from NW
Wind: NW 9 km/h
Temperature: 14°C
Dew Point: 10°C
Humidity: 77%
Barometer: 1016.3 hPa
Clouds: Mostly cloudy
Visibility: 16 km
Cloud details: Mostly cloudy 3353 m
2018/04/25 04:47 KRHV 250447Z 31005KT 10SM BKN110 14/10 A3001 RMK LAST
 
KOAK - Oakland, California, USA
Distance from station: NNW 50km
Updated: 25/04/2018 06:53
Few Clouds
Few Clouds
 Wind from WNW
Wind: WNW 13 km/h
Temperature: 10°C
Wind Chill: 8°C
Dew Point: 8°C
Humidity: 88%
Barometer: 1016.9 hPa
Clouds: Few Clouds
Visibility: 16 km
Cloud details: Few Clouds 396 m
2018/04/25 09:53 KOAK 250953Z 29007KT 10SM FEW013 10/08 A3003 RMK AO2 SLP170 T01000083 $
KSQL - San Carlos Airpo, California, USA
Distance from station: NW 34km
Updated: 25/04/2018 07:00
Overcast
Overcast
 Wind from calm
Wind: Calm
Temperature: 12°C
Dew Point: 9°C
Humidity: 82%
Barometer: 1016.9 hPa
Clouds: Overcast
Visibility: 16 km
Cloud details: Overcast 457 m
2018/04/25 10:00 KSQL 251000Z AUTO 00000KT 10SM OVC015 12/09 A3003 RMK AO2
 
KSFO - San Francisco, California, USA
Distance from station: NW 49km
Updated: 25/04/2018 06:56
Few Clouds
Few Clouds
 Wind from W
Wind: W 11 km/h
Temperature: 11°C
Dew Point: 7°C
Humidity: 77%
Barometer: 1016.9 hPa
Clouds: Few Clouds
Visibility: 16 km
Cloud details: Few Clouds 6096 m
2018/04/25 09:56 KSFO 250956Z 26006KT 10SM FEW200 11/07 A3003 RMK AO2 SLP169 T01110072
KE16 - San Martin, California, USA
Distance from station: ESE 43km
Updated: 25/04/2018 06:55
Overcast
Overcast
 Wind from calm
Wind: Calm
Temperature: 9°C
Dew Point: 7°C
Humidity: 87%
Barometer: 1017.9 hPa
Clouds: Overcast
Visibility: 16 km
Cloud details: Overcast 488 m
2018/04/25 09:55 KE16 250955Z AUTO 00000KT 10SM OVC016 09/07 A3006 RMK AO2
 
KWVI - Watsonville, California, USA
Distance from station: SSE 44km
Updated: 25/04/2018 06:53
Overcast
Overcast
 Wind from N
Wind: N 6 km/h
Temperature: 11°C
Dew Point: 9°C
Humidity: 88%
Barometer: 1017.3 hPa
Clouds: Overcast
Visibility: 13 km
Cloud details: Overcast 274 m
2018/04/25 09:53 KWVI 250953Z AUTO 36003KT 8SM OVC009 11/09 A3004 RMK AO2 SLP173 T01110094
KHAF - Half Moon Bay, California, USA
Distance from station: WNW 50km
Updated: 25/04/2018 07:00
Overcast
Overcast
 Wind from calm
Wind: Calm
Temperature: 10°C
Dew Point: 8°C
Humidity: 88%
Barometer: 1017.6 hPa
Clouds: Overcast
Visibility: 13 km
Cloud details: Overcast 366 m
2018/04/25 10:00 KHAF 251000Z AUTO 00000KT 8SM OVC012 10/08 A3005 RMK AO2
 
KHWD - Hayward, California, USA
Distance from station: N 44km
Updated: 25/04/2018 06:54
Overcast
Overcast
 Wind from N
Wind: N 13 km/h
Temperature: 12°C
Dew Point: 7°C
Humidity: 72%
Barometer: 1016.9 hPa
Clouds: Overcast
Visibility: 16 km
Cloud details: Overcast 396 m
2018/04/25 09:54 KHWD 250954Z 35007KT 10SM OVC013 12/07 A3003 RMK AO2 SLP179 T01170072
KLVK - Livermore, California, USA
Distance from station: NNE 51km
Updated: 25/04/2018 06:53
Clear
Clear
 Wind from WNW
Wind: WNW 9 km/h
Temperature: 10°C
Wind Chill: 9°C
Dew Point: 9°C
Humidity: 94%
Barometer: 1016.3 hPa
Clouds: Clear
Visibility: 13 km
2018/04/25 09:53 KLVK 250953Z AUTO 30005KT 8SM CLR 10/09 A3001 RMK AO2 SLP161 T01000094